Panorama City, California
Current Conditions -  °F | °C
As of 6:51 AM on Monday 22 Dec 2014 (Local Time) from KVNY Reporting Station
Clear Clear  
Wind Chill: 55°   Ceiling: Unl
Heat Index: 55°   Visibility: 10mi
Dew Point: 46°   Wind: 3mph
Humidity: 72%   Direction: 30°NNE
Pressure: 30.03"   Gusts: NA
Location:  34.22°N, 118.45°W
Report Text: KVNY 221451Z 03003KT 10SM CLR 13/08 A3003 RMK AO2 SLP165 T01280078 53002
Loading
Personal Weather Stations






























Interactive Weather Map New forecast layout! Learn more

10-Day Weather Forecast

Advertisements
Track Severe Weather on mobile